sensor_id;sensor_type;location;lat;lon;timestamp;temperature;humidity
46482;DHT22;32193;51.446;6.792;2022-08-21T00:01:54;19.60;99.90
46482;DHT22;32193;51.446;6.792;2022-08-21T00:04:20;19.60;99.90
46482;DHT22;32193;51.446;6.792;2022-08-21T00:06:46;19.50;99.90
46482;DHT22;32193;51.446;6.792;2022-08-21T00:09:12;19.60;99.90
46482;DHT22;32193;51.446;6.792;2022-08-21T00:11:38;19.60;99.90
46482;DHT22;32193;51.446;6.792;2022-08-21T00:14:05;19.60;99.90
46482;DHT22;32193;51.446;6.792;2022-08-21T00:16:31;19.60;99.90
46482;DHT22;32193;51.446;6.792;2022-08-21T00:18:57;19.60;99.90
46482;DHT22;32193;51.446;6.792;2022-08-21T00:21:23;19.70;99.90
46482;DHT22;32193;51.446;6.792;2022-08-21T00:23:50;19.60;99.90
46482;DHT22;32193;51.446;6.792;2022-08-21T00:26:16;19.70;99.90
46482;DHT22;32193;51.446;6.792;2022-08-21T00:28:42;19.60;99.90
46482;DHT22;32193;51.446;6.792;2022-08-21T00:31:08;19.60;99.90
46482;DHT22;32193;51.446;6.792;2022-08-21T00:33:34;19.50;99.90
46482;DHT22;32193;51.446;6.792;2022-08-21T00:36:00;19.50;99.90
46482;DHT22;32193;51.446;6.792;2022-08-21T00:38:25;19.50;99.90
46482;DHT22;32193;51.446;6.792;2022-08-21T00:40:54;19.40;99.90
46482;DHT22;32193;51.446;6.792;2022-08-21T00:43:27;19.40;99.90
46482;DHT22;32193;51.446;6.792;2022-08-21T00:45:54;19.40;99.90
46482;DHT22;32193;51.446;6.792;2022-08-21T00:48:20;19.30;99.90
46482;DHT22;32193;51.446;6.792;2022-08-21T00:50:53;19.20;99.90
46482;DHT22;32193;51.446;6.792;2022-08-21T00:53:20;19.10;99.90
46482;DHT22;32193;51.446;6.792;2022-08-21T00:55:46;19.00;99.90
46482;DHT22;32193;51.446;6.792;2022-08-21T00:58:13;19.00;99.90
46482;DHT22;32193;51.446;6.792;2022-08-21T01:00:42;18.90;99.90
46482;DHT22;32193;51.446;6.792;2022-08-21T01:03:12;18.90;99.90
46482;DHT22;32193;51.446;6.792;2022-08-21T01:05:39;18.90;99.90
46482;DHT22;32193;51.446;6.792;2022-08-21T01:08:06;18.80;99.90
46482;DHT22;32193;51.446;6.792;2022-08-21T01:10:33;18.90;99.90
46482;DHT22;32193;51.446;6.792;2022-08-21T01:12:59;18.90;99.90
46482;DHT22;32193;51.446;6.792;2022-08-21T01:15:28;18.90;99.90
46482;DHT22;32193;51.446;6.792;2022-08-21T01:17:55;18.80;99.90
46482;DHT22;32193;51.446;6.792;2022-08-21T01:20:21;18.80;99.90
46482;DHT22;32193;51.446;6.792;2022-08-21T01:22:47;18.70;99.90
46482;DHT22;32193;51.446;6.792;2022-08-21T01:25:18;18.70;99.90
46482;DHT22;32193;51.446;6.792;2022-08-21T01:27:48;18.70;99.90
46482;DHT22;32193;51.446;6.792;2022-08-21T01:30:16;18.60;99.90
46482;DHT22;32193;51.446;6.792;2022-08-21T01:32:43;18.70;99.90
46482;DHT22;32193;51.446;6.792;2022-08-21T01:35:10;18.60;99.90
46482;DHT22;32193;51.446;6.792;2022-08-21T01:37:36;18.40;99.90
46482;DHT22;32193;51.446;6.792;2022-08-21T01:40:04;18.40;99.90
46482;DHT22;32193;51.446;6.792;2022-08-21T01:42:30;18.30;99.90
46482;DHT22;32193;51.446;6.792;2022-08-21T01:44:56;18.30;99.90
46482;DHT22;32193;51.446;6.792;2022-08-21T01:47:21;18.30;99.90
46482;DHT22;32193;51.446;6.792;2022-08-21T01:49:47;18.30;99.90
46482;DHT22;32193;51.446;6.792;2022-08-21T01:52:13;18.30;99.90
46482;DHT22;32193;51.446;6.792;2022-08-21T01:54:39;18.20;99.90
46482;DHT22;32193;51.446;6.792;2022-08-21T01:57:05;18.10;99.90
46482;DHT22;32193;51.446;6.792;2022-08-21T01:59:31;18.10;99.90
46482;DHT22;32193;51.446;6.792;2022-08-21T02:01:57;18.00;99.90
46482;DHT22;32193;51.446;6.792;2022-08-21T02:04:23;18.00;99.90
46482;DHT22;32193;51.446;6.792;2022-08-21T02:06:49;17.90;99.90
46482;DHT22;32193;51.446;6.792;2022-08-21T02:09:15;17.90;99.90
46482;DHT22;32193;51.446;6.792;2022-08-21T02:11:42;17.80;99.90
46482;DHT22;32193;51.446;6.792;2022-08-21T02:14:12;17.80;99.90
46482;DHT22;32193;51.446;6.792;2022-08-21T02:16:40;17.70;99.90
46482;DHT22;32193;51.446;6.792;2022-08-21T02:19:06;17.70;99.90
46482;DHT22;32193;51.446;6.792;2022-08-21T02:21:32;17.80;99.90
46482;DHT22;32193;51.446;6.792;2022-08-21T02:23:58;17.70;99.90
46482;DHT22;32193;51.446;6.792;2022-08-21T02:26:25;17.70;99.90
46482;DHT22;32193;51.446;6.792;2022-08-21T02:28:50;17.80;99.90
46482;DHT22;32193;51.446;6.792;2022-08-21T02:31:16;17.90;99.90
46482;DHT22;32193;51.446;6.792;2022-08-21T02:33:42;18.00;99.90
46482;DHT22;32193;51.446;6.792;2022-08-21T02:36:09;18.00;99.90
46482;DHT22;32193;51.446;6.792;2022-08-21T02:38:36;18.00;99.90
46482;DHT22;32193;51.446;6.792;2022-08-21T02:41:05;17.90;99.90
46482;DHT22;32193;51.446;6.792;2022-08-21T02:43:31;17.80;99.90
46482;DHT22;32193;51.446;6.792;2022-08-21T02:45:57;17.80;99.90
46482;DHT22;32193;51.446;6.792;2022-08-21T02:48:26;17.80;99.90
46482;DHT22;32193;51.446;6.792;2022-08-21T02:50:58;17.80;99.90
46482;DHT22;32193;51.446;6.792;2022-08-21T02:53:24;17.80;99.90
46482;DHT22;32193;51.446;6.792;2022-08-21T02:55:52;17.80;99.90
46482;DHT22;32193;51.446;6.792;2022-08-21T02:58:25;17.70;99.90
46482;DHT22;32193;51.446;6.792;2022-08-21T03:00:51;17.70;99.90
46482;DHT22;32193;51.446;6.792;2022-08-21T03:03:17;17.70;99.90
46482;DHT22;32193;51.446;6.792;2022-08-21T03:05:43;17.70;99.90
46482;DHT22;32193;51.446;6.792;2022-08-21T03:08:11;17.70;99.90
46482;DHT22;32193;51.446;6.792;2022-08-21T03:10:39;17.70;99.90
46482;DHT22;32193;51.446;6.792;2022-08-21T03:13:06;17.70;99.90
46482;DHT22;32193;51.446;6.792;2022-08-21T03:15:32;17.60;99.90
46482;DHT22;32193;51.446;6.792;2022-08-21T03:17:58;17.70;99.90
46482;DHT22;32193;51.446;6.792;2022-08-21T03:20:25;17.60;99.90
46482;DHT22;32193;51.446;6.792;2022-08-21T03:22:52;17.60;99.90
46482;DHT22;32193;51.446;6.792;2022-08-21T03:25:19;17.60;99.90
46482;DHT22;32193;51.446;6.792;2022-08-21T03:27:46;17.60;99.90
46482;DHT22;32193;51.446;6.792;2022-08-21T03:30:14;17.60;99.90
46482;DHT22;32193;51.446;6.792;2022-08-21T03:32:40;17.60;99.90
46482;DHT22;32193;51.446;6.792;2022-08-21T03:35:07;17.60;99.90
46482;DHT22;32193;51.446;6.792;2022-08-21T03:37:33;17.60;99.90
46482;DHT22;32193;51.446;6.792;2022-08-21T03:39:58;17.50;99.90
46482;DHT22;32193;51.446;6.792;2022-08-21T03:42:24;17.40;99.90
46482;DHT22;32193;51.446;6.792;2022-08-21T03:44:50;17.40;99.90
46482;DHT22;32193;51.446;6.792;2022-08-21T03:47:16;17.50;99.90
46482;DHT22;32193;51.446;6.792;2022-08-21T03:49:42;17.50;99.90
46482;DHT22;32193;51.446;6.792;2022-08-21T03:52:08;17.50;99.90
46482;DHT22;32193;51.446;6.792;2022-08-21T03:54:33;17.40;99.90
46482;DHT22;32193;51.446;6.792;2022-08-21T03:56:59;17.40;99.90
46482;DHT22;32193;51.446;6.792;2022-08-21T03:59:25;17.50;99.90
46482;DHT22;32193;51.446;6.792;2022-08-21T04:01:59;17.50;99.90
46482;DHT22;32193;51.446;6.792;2022-08-21T04:04:27;17.50;99.90
46482;DHT22;32193;51.446;6.792;2022-08-21T04:06:53;17.50;99.90
46482;DHT22;32193;51.446;6.792;2022-08-21T04:09:19;17.50;99.90
46482;DHT22;32193;51.446;6.792;2022-08-21T04:11:45;17.40;99.90
46482;DHT22;32193;51.446;6.792;2022-08-21T04:14:13;17.50;99.90
46482;DHT22;32193;51.446;6.792;2022-08-21T04:16:39;17.40;99.90
46482;DHT22;32193;51.446;6.792;2022-08-21T04:19:05;17.40;99.90
46482;DHT22;32193;51.446;6.792;2022-08-21T04:21:31;17.40;99.90
46482;DHT22;32193;51.446;6.792;2022-08-21T04:23:57;17.30;99.90
46482;DHT22;32193;51.446;6.792;2022-08-21T04:26:24;17.30;99.90
46482;DHT22;32193;51.446;6.792;2022-08-21T04:28:51;17.30;99.90
46482;DHT22;32193;51.446;6.792;2022-08-21T04:31:18;17.30;99.90
46482;DHT22;32193;51.446;6.792;2022-08-21T04:33:43;17.30;99.90
46482;DHT22;32193;51.446;6.792;2022-08-21T04:36:10;17.30;99.90
46482;DHT22;32193;51.446;6.792;2022-08-21T04:38:37;17.30;99.90
46482;DHT22;32193;51.446;6.792;2022-08-21T04:41:03;17.30;99.90
46482;DHT22;32193;51.446;6.792;2022-08-21T04:43:30;17.40;99.90
46482;DHT22;32193;51.446;6.792;2022-08-21T04:45:55;17.40;99.90
46482;DHT22;32193;51.446;6.792;2022-08-21T04:48:22;17.40;99.90
46482;DHT22;32193;51.446;6.792;2022-08-21T04:54:00;17.40;99.90
46482;DHT22;32193;51.446;6.792;2022-08-21T04:56:41;17.30;99.90
46482;DHT22;32193;51.446;6.792;2022-08-21T04:59:14;17.20;99.90
46482;DHT22;32193;51.446;6.792;2022-08-21T05:01:42;17.40;99.90
46482;DHT22;32193;51.446;6.792;2022-08-21T05:04:11;17.40;99.90
46482;DHT22;32193;51.446;6.792;2022-08-21T05:06:38;17.50;99.90
46482;DHT22;32193;51.446;6.792;2022-08-21T05:09:05;17.60;99.90
46482;DHT22;32193;51.446;6.792;2022-08-21T05:11:31;17.70;99.90
46482;DHT22;32193;51.446;6.792;2022-08-21T05:13:57;17.70;99.90
46482;DHT22;32193;51.446;6.792;2022-08-21T05:16:23;17.80;99.90
46482;DHT22;32193;51.446;6.792;2022-08-21T05:18:49;17.90;99.90
46482;DHT22;32193;51.446;6.792;2022-08-21T05:21:15;18.00;99.90
46482;DHT22;32193;51.446;6.792;2022-08-21T05:23:41;18.30;99.90
46482;DHT22;32193;51.446;6.792;2022-08-21T05:26:08;18.40;99.90
46482;DHT22;32193;51.446;6.792;2022-08-21T05:28:33;18.60;99.90
46482;DHT22;32193;51.446;6.792;2022-08-21T05:30:59;19.10;99.90
46482;DHT22;32193;51.446;6.792;2022-08-21T05:33:25;19.50;99.90
46482;DHT22;32193;51.446;6.792;2022-08-21T05:35:52;19.50;99.90
46482;DHT22;32193;51.446;6.792;2022-08-21T05:38:18;19.70;99.90
46482;DHT22;32193;51.446;6.792;2022-08-21T05:40:45;20.00;99.90
46482;DHT22;32193;51.446;6.792;2022-08-21T05:43:10;20.20;99.90
46482;DHT22;32193;51.446;6.792;2022-08-21T05:45:36;20.50;99.90
46482;DHT22;32193;51.446;6.792;2022-08-21T05:48:12;20.60;99.90
46482;DHT22;32193;51.446;6.792;2022-08-21T05:50:38;20.40;99.90
46482;DHT22;32193;51.446;6.792;2022-08-21T05:53:05;20.30;99.90
46482;DHT22;32193;51.446;6.792;2022-08-21T05:55:30;20.30;99.90
46482;DHT22;32193;51.446;6.792;2022-08-21T05:57:56;20.30;99.90
46482;DHT22;32193;51.446;6.792;2022-08-21T06:00:22;20.30;99.90
46482;DHT22;32193;51.446;6.792;2022-08-21T06:02:49;20.30;99.90
46482;DHT22;32193;51.446;6.792;2022-08-21T06:05:16;20.50;99.90
46482;DHT22;32193;51.446;6.792;2022-08-21T06:07:42;20.60;99.90
46482;DHT22;32193;51.446;6.792;2022-08-21T06:10:08;20.40;99.90
46482;DHT22;32193;51.446;6.792;2022-08-21T06:12:34;20.50;99.90
46482;DHT22;32193;51.446;6.792;2022-08-21T06:14:59;20.70;99.90
46482;DHT22;32193;51.446;6.792;2022-08-21T06:17:25;20.80;99.90
46482;DHT22;32193;51.446;6.792;2022-08-21T06:19:52;21.00;99.90
46482;DHT22;32193;51.446;6.792;2022-08-21T06:22:18;21.00;99.90
46482;DHT22;32193;51.446;6.792;2022-08-21T06:24:43;21.10;99.90
46482;DHT22;32193;51.446;6.792;2022-08-21T06:27:09;21.10;99.90
46482;DHT22;32193;51.446;6.792;2022-08-21T06:29:34;21.50;99.90
46482;DHT22;32193;51.446;6.792;2022-08-21T06:32:00;21.70;99.90
46482;DHT22;32193;51.446;6.792;2022-08-21T06:34:26;22.00;99.90
46482;DHT22;32193;51.446;6.792;2022-08-21T06:36:52;21.90;99.90
46482;DHT22;32193;51.446;6.792;2022-08-21T06:39:18;22.10;99.90
46482;DHT22;32193;51.446;6.792;2022-08-21T06:41:43;22.30;99.90
46482;DHT22;32193;51.446;6.792;2022-08-21T06:44:09;22.40;99.90
46482;DHT22;32193;51.446;6.792;2022-08-21T06:46:35;22.70;99.90
46482;DHT22;32193;51.446;6.792;2022-08-21T06:49:00;22.80;99.90
46482;DHT22;32193;51.446;6.792;2022-08-21T06:51:26;22.40;99.90
46482;DHT22;32193;51.446;6.792;2022-08-21T06:53:53;22.90;99.90
46482;DHT22;32193;51.446;6.792;2022-08-21T06:56:19;22.90;99.90
46482;DHT22;32193;51.446;6.792;2022-08-21T06:58:45;22.70;99.90
46482;DHT22;32193;51.446;6.792;2022-08-21T07:01:11;22.80;99.90
46482;DHT22;32193;51.446;6.792;2022-08-21T07:03:39;22.80;99.90
46482;DHT22;32193;51.446;6.792;2022-08-21T07:06:06;22.70;99.90
46482;DHT22;32193;51.446;6.792;2022-08-21T07:08:32;23.00;99.90
46482;DHT22;32193;51.446;6.792;2022-08-21T07:11:00;23.00;99.90
46482;DHT22;32193;51.446;6.792;2022-08-21T07:13:27;23.00;99.90
46482;DHT22;32193;51.446;6.792;2022-08-21T07:15:53;22.80;99.90
46482;DHT22;32193;51.446;6.792;2022-08-21T07:18:19;22.90;99.90
46482;DHT22;32193;51.446;6.792;2022-08-21T07:20:45;23.20;99.90
46482;DHT22;32193;51.446;6.792;2022-08-21T07:23:40;23.30;99.90
46482;DHT22;32193;51.446;6.792;2022-08-21T07:26:06;23.40;99.90
46482;DHT22;32193;51.446;6.792;2022-08-21T07:28:32;23.40;99.90
46482;DHT22;32193;51.446;6.792;2022-08-21T07:30:59;23.60;99.90
46482;DHT22;32193;51.446;6.792;2022-08-21T07:33:27;23.40;99.90
46482;DHT22;32193;51.446;6.792;2022-08-21T07:35:53;23.50;99.90
46482;DHT22;32193;51.446;6.792;2022-08-21T07:38:20;23.30;99.90
46482;DHT22;32193;51.446;6.792;2022-08-21T07:40:47;23.40;99.90
46482;DHT22;32193;51.446;6.792;2022-08-21T07:43:14;23.50;99.90
46482;DHT22;32193;51.446;6.792;2022-08-21T07:45:42;23.60;99.90
46482;DHT22;32193;51.446;6.792;2022-08-21T07:48:07;23.80;99.90
46482;DHT22;32193;51.446;6.792;2022-08-21T07:50:33;23.80;99.90
46482;DHT22;32193;51.446;6.792;2022-08-21T07:52:58;23.70;99.90
46482;DHT22;32193;51.446;6.792;2022-08-21T07:55:25;23.80;99.90
46482;DHT22;32193;51.446;6.792;2022-08-21T07:57:51;24.20;99.90
46482;DHT22;32193;51.446;6.792;2022-08-21T08:00:19;24.40;99.90
46482;DHT22;32193;51.446;6.792;2022-08-21T08:02:48;23.90;99.90
46482;DHT22;32193;51.446;6.792;2022-08-21T08:05:20;24.20;99.90
46482;DHT22;32193;51.446;6.792;2022-08-21T08:07:46;24.30;99.90
46482;DHT22;32193;51.446;6.792;2022-08-21T08:10:12;24.40;99.90
46482;DHT22;32193;51.446;6.792;2022-08-21T08:12:39;24.80;99.90
46482;DHT22;32193;51.446;6.792;2022-08-21T08:15:15;25.00;99.90
46482;DHT22;32193;51.446;6.792;2022-08-21T08:17:41;25.20;99.90
46482;DHT22;32193;51.446;6.792;2022-08-21T08:20:08;25.60;99.90
46482;DHT22;32193;51.446;6.792;2022-08-21T08:22:35;25.70;99.90
46482;DHT22;32193;51.446;6.792;2022-08-21T08:25:02;25.90;99.90
46482;DHT22;32193;51.446;6.792;2022-08-21T08:27:27;25.70;99.80
46482;DHT22;32193;51.446;6.792;2022-08-21T08:29:53;25.20;99.90
46482;DHT22;32193;51.446;6.792;2022-08-21T08:32:19;25.00;99.90
46482;DHT22;32193;51.446;6.792;2022-08-21T08:34:45;25.00;99.90
46482;DHT22;32193;51.446;6.792;2022-08-21T08:37:13;25.20;99.90
46482;DHT22;32193;51.446;6.792;2022-08-21T08:39:39;25.20;99.90
46482;DHT22;32193;51.446;6.792;2022-08-21T08:42:08;25.00;99.90
46482;DHT22;32193;51.446;6.792;2022-08-21T08:44:48;25.10;99.90
46482;DHT22;32193;51.446;6.792;2022-08-21T08:47:16;24.60;99.90
46482;DHT22;32193;51.446;6.792;2022-08-21T08:49:48;24.60;99.90
46482;DHT22;32193;51.446;6.792;2022-08-21T08:52:28;24.70;99.90
46482;DHT22;32193;51.446;6.792;2022-08-21T08:57:36;24.60;99.90
46482;DHT22;32193;51.446;6.792;2022-08-21T09:00:08;24.60;99.90
46482;DHT22;32193;51.446;6.792;2022-08-21T09:02:39;24.70;99.90
46482;DHT22;32193;51.446;6.792;2022-08-21T09:05:06;24.50;99.90
46482;DHT22;32193;51.446;6.792;2022-08-21T09:15:33;24.40;99.90
46482;DHT22;32193;51.446;6.792;2022-08-21T09:26:08;24.60;99.90
46482;DHT22;32193;51.446;6.792;2022-08-21T09:28:37;24.30;99.90
46482;DHT22;32193;51.446;6.792;2022-08-21T09:31:06;24.50;99.90
46482;DHT22;32193;51.446;6.792;2022-08-21T09:33:33;24.70;99.90
46482;DHT22;32193;51.446;6.792;2022-08-21T09:35:59;25.00;99.90
46482;DHT22;32193;51.446;6.792;2022-08-21T09:38:33;25.20;99.90
46482;DHT22;32193;51.446;6.792;2022-08-21T09:41:05;25.00;99.90
46482;DHT22;32193;51.446;6.792;2022-08-21T09:43:31;24.70;99.90
46482;DHT22;32193;51.446;6.792;2022-08-21T09:46:08;24.60;99.90
46482;DHT22;32193;51.446;6.792;2022-08-21T09:48:46;24.50;99.90
46482;DHT22;32193;51.446;6.792;2022-08-21T09:51:23;24.70;99.90
46482;DHT22;32193;51.446;6.792;2022-08-21T09:54:14;24.90;99.90
46482;DHT22;32193;51.446;6.792;2022-08-21T09:57:05;25.10;99.90
46482;DHT22;32193;51.446;6.792;2022-08-21T10:00:06;25.20;99.90
46482;DHT22;32193;51.446;6.792;2022-08-21T10:02:35;25.10;99.90
46482;DHT22;32193;51.446;6.792;2022-08-21T10:05:06;25.20;99.90
46482;DHT22;32193;51.446;6.792;2022-08-21T10:07:35;25.30;99.90
46482;DHT22;32193;51.446;6.792;2022-08-21T10:10:21;25.30;99.90
46482;DHT22;32193;51.446;6.792;2022-08-21T10:16:08;25.20;99.90
46482;DHT22;32193;51.446;6.792;2022-08-21T10:24:12;25.40;99.90
46482;DHT22;32193;51.446;6.792;2022-08-21T10:37:29;25.50;99.80
46482;DHT22;32193;51.446;6.792;2022-08-21T10:48:50;25.30;99.90
46482;DHT22;32193;51.446;6.792;2022-08-21T10:56:58;25.50;99.40
46482;DHT22;32193;51.446;6.792;2022-08-21T10:59:34;25.50;99.90
46482;DHT22;32193;51.446;6.792;2022-08-21T11:02:13;25.60;99.40
46482;DHT22;32193;51.446;6.792;2022-08-21T11:07:21;25.60;99.20
46482;DHT22;32193;51.446;6.792;2022-08-21T11:09:49;25.50;99.10
46482;DHT22;32193;51.446;6.792;2022-08-21T11:12:23;25.30;99.80
46482;DHT22;32193;51.446;6.792;2022-08-21T11:17:39;25.50;99.50
46482;DHT22;32193;51.446;6.792;2022-08-21T11:20:26;25.50;99.60
46482;DHT22;32193;51.446;6.792;2022-08-21T11:23:19;25.30;99.20
46482;DHT22;32193;51.446;6.792;2022-08-21T11:25:51;25.50;99.40
46482;DHT22;32193;51.446;6.792;2022-08-21T11:31:07;26.00;99.50
46482;DHT22;32193;51.446;6.792;2022-08-21T11:33:49;26.20;99.20
46482;DHT22;32193;51.446;6.792;2022-08-21T11:42:06;26.30;97.90
46482;DHT22;32193;51.446;6.792;2022-08-21T11:47:13;25.90;98.20
46482;DHT22;32193;51.446;6.792;2022-08-21T11:49:49;25.90;98.10
46482;DHT22;32193;51.446;6.792;2022-08-21T11:52:25;26.00;98.00
46482;DHT22;32193;51.446;6.792;2022-08-21T11:54:59;26.10;97.80
46482;DHT22;32193;51.446;6.792;2022-08-21T11:57:30;26.10;98.20
46482;DHT22;32193;51.446;6.792;2022-08-21T12:00:05;26.20;98.10
46482;DHT22;32193;51.446;6.792;2022-08-21T12:02:38;26.20;98.10
46482;DHT22;32193;51.446;6.792;2022-08-21T12:05:07;26.30;98.30
46482;DHT22;32193;51.446;6.792;2022-08-21T12:07:38;26.20;98.10
46482;DHT22;32193;51.446;6.792;2022-08-21T12:10:12;26.30;98.20
46482;DHT22;32193;51.446;6.792;2022-08-21T12:12:41;26.30;98.30
46482;DHT22;32193;51.446;6.792;2022-08-21T12:18:23;26.70;98.00
46482;DHT22;32193;51.446;6.792;2022-08-21T12:24:03;26.60;97.50
46482;DHT22;32193;51.446;6.792;2022-08-21T12:26:51;26.70;97.60
46482;DHT22;32193;51.446;6.792;2022-08-21T12:29:27;26.70;97.00
46482;DHT22;32193;51.446;6.792;2022-08-21T12:32:00;26.30;97.00
46482;DHT22;32193;51.446;6.792;2022-08-21T12:37:12;26.50;97.30
46482;DHT22;32193;51.446;6.792;2022-08-21T12:39:44;26.60;96.90
46482;DHT22;32193;51.446;6.792;2022-08-21T12:44:56;26.70;96.90
46482;DHT22;32193;51.446;6.792;2022-08-21T12:47:35;26.80;96.70
46482;DHT22;32193;51.446;6.792;2022-08-21T12:50:06;26.90;96.50
46482;DHT22;32193;51.446;6.792;2022-08-21T12:53:02;26.80;96.50
46482;DHT22;32193;51.446;6.792;2022-08-21T12:55:32;26.40;96.70
46482;DHT22;32193;51.446;6.792;2022-08-21T12:57:58;26.40;97.30
46482;DHT22;32193;51.446;6.792;2022-08-21T13:00:26;26.60;96.90
46482;DHT22;32193;51.446;6.792;2022-08-21T13:02:54;26.60;96.40
46482;DHT22;32193;51.446;6.792;2022-08-21T13:05:33;26.70;96.30
46482;DHT22;32193;51.446;6.792;2022-08-21T13:08:04;26.40;96.70
46482;DHT22;32193;51.446;6.792;2022-08-21T13:10:32;26.60;96.70
46482;DHT22;32193;51.446;6.792;2022-08-21T13:13:00;26.50;95.10
46482;DHT22;32193;51.446;6.792;2022-08-21T13:15:30;26.60;95.20
46482;DHT22;32193;51.446;6.792;2022-08-21T13:17:57;26.60;95.60
46482;DHT22;32193;51.446;6.792;2022-08-21T13:20:36;26.70;96.30
46482;DHT22;32193;51.446;6.792;2022-08-21T13:23:07;26.60;96.60
46482;DHT22;32193;51.446;6.792;2022-08-21T13:25:36;26.70;96.60
46482;DHT22;32193;51.446;6.792;2022-08-21T13:28:13;26.90;96.30
46482;DHT22;32193;51.446;6.792;2022-08-21T13:30:49;26.90;96.70
46482;DHT22;32193;51.446;6.792;2022-08-21T13:33:18;27.00;96.50
46482;DHT22;32193;51.446;6.792;2022-08-21T13:38:25;27.20;95.90
46482;DHT22;32193;51.446;6.792;2022-08-21T13:40:56;27.20;95.40
46482;DHT22;32193;51.446;6.792;2022-08-21T13:43:28;27.00;95.40
46482;DHT22;32193;51.446;6.792;2022-08-21T13:45:55;27.10;95.50
46482;DHT22;32193;51.446;6.792;2022-08-21T13:48:24;27.20;95.50
46482;DHT22;32193;51.446;6.792;2022-08-21T13:50:51;27.20;94.80
46482;DHT22;32193;51.446;6.792;2022-08-21T13:53:29;27.20;95.30
46482;DHT22;32193;51.446;6.792;2022-08-21T13:55:56;27.30;95.10
46482;DHT22;32193;51.446;6.792;2022-08-21T14:00:55;27.40;95.00
46482;DHT22;32193;51.446;6.792;2022-08-21T14:03:34;27.10;95.20
46482;DHT22;32193;51.446;6.792;2022-08-21T14:06:02;27.10;95.30
46482;DHT22;32193;51.446;6.792;2022-08-21T14:08:37;27.00;95.60
46482;DHT22;32193;51.446;6.792;2022-08-21T14:11:11;26.60;95.20
46482;DHT22;32193;51.446;6.792;2022-08-21T14:13:46;26.70;95.60
46482;DHT22;32193;51.446;6.792;2022-08-21T14:16:20;26.60;95.80
46482;DHT22;32193;51.446;6.792;2022-08-21T14:21:25;26.70;95.10
46482;DHT22;32193;51.446;6.792;2022-08-21T14:26:36;26.70;95.60
46482;DHT22;32193;51.446;6.792;2022-08-21T14:29:07;26.80;95.30
46482;DHT22;32193;51.446;6.792;2022-08-21T14:31:33;26.80;95.80
46482;DHT22;32193;51.446;6.792;2022-08-21T14:34:00;26.80;96.10
46482;DHT22;32193;51.446;6.792;2022-08-21T14:36:26;26.70;96.30
46482;DHT22;32193;51.446;6.792;2022-08-21T14:38:52;26.90;96.40
46482;DHT22;32193;51.446;6.792;2022-08-21T14:41:21;26.90;96.20
46482;DHT22;32193;51.446;6.792;2022-08-21T14:43:48;27.10;95.90
46482;DHT22;32193;51.446;6.792;2022-08-21T14:46:21;27.20;95.50
46482;DHT22;32193;51.446;6.792;2022-08-21T14:48:47;27.20;95.00
46482;DHT22;32193;51.446;6.792;2022-08-21T14:51:14;27.10;95.10
46482;DHT22;32193;51.446;6.792;2022-08-21T14:53:40;27.10;94.90
46482;DHT22;32193;51.446;6.792;2022-08-21T14:56:06;26.90;95.00
46482;DHT22;32193;51.446;6.792;2022-08-21T14:58:37;26.80;95.10
46482;DHT22;32193;51.446;6.792;2022-08-21T15:01:05;26.90;95.30
46482;DHT22;32193;51.446;6.792;2022-08-21T15:03:31;27.10;95.40
46482;DHT22;32193;51.446;6.792;2022-08-21T15:05:57;27.00;94.80
46482;DHT22;32193;51.446;6.792;2022-08-21T15:08:23;27.10;95.50
46482;DHT22;32193;51.446;6.792;2022-08-21T15:10:50;27.10;95.00
46482;DHT22;32193;51.446;6.792;2022-08-21T15:13:16;26.80;95.00
46482;DHT22;32193;51.446;6.792;2022-08-21T15:15:45;26.70;95.00
46482;DHT22;32193;51.446;6.792;2022-08-21T15:18:13;26.40;95.30
46482;DHT22;32193;51.446;6.792;2022-08-21T15:20:39;26.30;95.80
46482;DHT22;32193;51.446;6.792;2022-08-21T15:23:06;26.30;95.50
46482;DHT22;32193;51.446;6.792;2022-08-21T15:25:32;26.50;95.10
46482;DHT22;32193;51.446;6.792;2022-08-21T15:27:58;26.50;95.20
46482;DHT22;32193;51.446;6.792;2022-08-21T15:30:25;26.70;95.10
46482;DHT22;32193;51.446;6.792;2022-08-21T15:32:50;26.70;95.40
46482;DHT22;32193;51.446;6.792;2022-08-21T15:35:17;26.70;95.20
46482;DHT22;32193;51.446;6.792;2022-08-21T15:37:43;26.60;95.30
46482;DHT22;32193;51.446;6.792;2022-08-21T15:40:09;26.60;95.10
46482;DHT22;32193;51.446;6.792;2022-08-21T15:42:35;26.40;95.00
46482;DHT22;32193;51.446;6.792;2022-08-21T15:45:04;26.50;95.50
46482;DHT22;32193;51.446;6.792;2022-08-21T15:47:32;26.50;95.20
46482;DHT22;32193;51.446;6.792;2022-08-21T15:49:59;26.50;95.10
46482;DHT22;32193;51.446;6.792;2022-08-21T15:52:25;26.40;94.90
46482;DHT22;32193;51.446;6.792;2022-08-21T15:54:51;26.40;95.10
46482;DHT22;32193;51.446;6.792;2022-08-21T15:57:19;26.20;95.40
46482;DHT22;32193;51.446;6.792;2022-08-21T15:59:48;26.20;95.70
46482;DHT22;32193;51.446;6.792;2022-08-21T16:02:33;26.20;94.50
46482;DHT22;32193;51.446;6.792;2022-08-21T16:04:59;26.10;94.70
46482;DHT22;32193;51.446;6.792;2022-08-21T16:07:25;26.20;94.20
46482;DHT22;32193;51.446;6.792;2022-08-21T16:09:50;26.20;94.50
46482;DHT22;32193;51.446;6.792;2022-08-21T16:12:30;26.20;94.60
46482;DHT22;32193;51.446;6.792;2022-08-21T16:14:57;26.10;94.70
46482;DHT22;32193;51.446;6.792;2022-08-21T16:17:28;26.10;94.90
46482;DHT22;32193;51.446;6.792;2022-08-21T16:19:55;26.10;94.60
46482;DHT22;32193;51.446;6.792;2022-08-21T16:22:21;26.10;94.40
46482;DHT22;32193;51.446;6.792;2022-08-21T16:24:46;26.10;94.40
46482;DHT22;32193;51.446;6.792;2022-08-21T16:27:12;26.00;94.50
46482;DHT22;32193;51.446;6.792;2022-08-21T16:29:39;26.00;94.20
46482;DHT22;32193;51.446;6.792;2022-08-21T16:32:05;26.00;94.30
46482;DHT22;32193;51.446;6.792;2022-08-21T16:34:32;26.00;94.30
46482;DHT22;32193;51.446;6.792;2022-08-21T16:36:58;25.90;94.70
46482;DHT22;32193;51.446;6.792;2022-08-21T16:39:24;25.90;94.20
46482;DHT22;32193;51.446;6.792;2022-08-21T16:41:49;25.80;94.10
46482;DHT22;32193;51.446;6.792;2022-08-21T16:44:17;25.60;94.10
46482;DHT22;32193;51.446;6.792;2022-08-21T16:46:43;25.50;94.10
46482;DHT22;32193;51.446;6.792;2022-08-21T16:49:09;25.50;94.30
46482;DHT22;32193;51.446;6.792;2022-08-21T16:51:36;25.50;94.40
46482;DHT22;32193;51.446;6.792;2022-08-21T16:54:02;25.50;94.40
46482;DHT22;32193;51.446;6.792;2022-08-21T16:56:28;25.60;94.20
46482;DHT22;32193;51.446;6.792;2022-08-21T16:58:56;25.60;93.60
46482;DHT22;32193;51.446;6.792;2022-08-21T17:01:25;25.50;93.70
46482;DHT22;32193;51.446;6.792;2022-08-21T17:03:52;25.50;93.40
46482;DHT22;32193;51.446;6.792;2022-08-21T17:06:20;25.40;93.70
46482;DHT22;32193;51.446;6.792;2022-08-21T17:08:46;25.40;93.70
46482;DHT22;32193;51.446;6.792;2022-08-21T17:11:24;25.40;93.30
46482;DHT22;32193;51.446;6.792;2022-08-21T17:13:51;25.30;93.60